Time;durP1;ratioP1;P1;durP2;ratioP2;P2;SDS_P1;SDS_P2;PMS_P1;PMS_P2;Temp;Humidity;BMP_temperature;BMP_pressure;BME280_temperature;BME280_humidity;BME280_pressure;Samples;Min_cycle;Max_cycle;Signal;HPM_P1;HPM_P2
2022/06/25 00:01:02;;;;;;;0.93;0.50;;;;;;;;;;5031768;28;20029;-66
2022/06/25 00:03:28;;;;;;;3.22;0.60;;;;;;;;;;5032842;28;20442;-67
2022/06/25 00:05:54;;;;;;;2.78;0.60;;;;;;;;;;5030011;28;20053;-66
2022/06/25 00:08:21;;;;;;;1.23;0.50;;;;;;;;;;5032449;28;20036;-67
2022/06/25 00:10:47;;;;;;;0.52;0.47;;;;;;;;;;5032414;28;20033;-66
2022/06/25 00:13:13;;;;;;;1.17;0.65;;;;;;;;;;5030718;28;20083;-67
2022/06/25 00:15:39;;;;;;;1.60;0.45;;;;;;;;;;5032599;28;20080;-67
2022/06/25 00:18:05;;;;;;;0.95;0.60;;;;;;;;;;5031597;28;20032;-67
2022/06/25 00:20:31;;;;;;;0.75;0.70;;;;;;;;;;5031519;28;20030;-65
2022/06/25 00:22:57;;;;;;;1.42;0.50;;;;;;;;;;5019636;28;20470;-66
2022/06/25 00:25:22;;;;;;;0.70;0.60;;;;;;;;;;5032263;28;20034;-66
2022/06/25 00:27:48;;;;;;;0.88;0.55;;;;;;;;;;5032267;28;20029;-66
2022/06/25 00:30:14;;;;;;;0.65;0.50;;;;;;;;;;5031576;28;20036;-66
2022/06/25 00:32:40;;;;;;;0.85;0.50;;;;;;;;;;5032309;28;20390;-67
2022/06/25 00:35:06;;;;;;;1.27;0.60;;;;;;;;;;5031414;28;20036;-66
2022/06/25 00:37:32;;;;;;;1.15;0.40;;;;;;;;;;5031940;28;20095;-67
2022/06/25 00:39:58;;;;;;;0.90;0.70;;;;;;;;;;5031305;28;20079;-66
2022/06/25 00:42:24;;;;;;;0.70;0.50;;;;;;;;;;5026853;28;20025;-67
2022/06/25 00:44:53;;;;;;;1.45;0.95;;;;;;;;;;5031647;28;20083;-66
2022/06/25 00:47:19;;;;;;;1.17;0.60;;;;;;;;;;5023657;28;20033;-66
2022/06/25 00:49:45;;;;;;;0.88;0.57;;;;;;;;;;5030289;28;20021;-66
2022/06/25 00:52:13;;;;;;;0.90;0.60;;;;;;;;;;5030729;28;20029;-67
2022/06/25 00:54:39;;;;;;;1.73;0.65;;;;;;;;;;5031023;28;20478;-67
2022/06/25 00:57:07;;;;;;;1.10;0.40;;;;;;;;;;5030910;28;20079;-67
2022/06/25 00:59:36;;;;;;;0.60;0.52;;;;;;;;;;5030404;28;20409;-67
2022/06/25 01:02:02;;;;;;;2.92;0.60;;;;;;;;;;5031164;28;20097;-67
2022/06/25 01:04:28;;;;;;;0.80;0.60;;;;;;;;;;5013723;28;20068;-67
2022/06/25 01:06:54;;;;;;;0.43;0.43;;;;;;;;;;5031489;28;20030;-57
2022/06/25 01:09:20;;;;;;;1.33;0.60;;;;;;;;;;5031421;28;20091;-67
2022/06/25 01:11:46;;;;;;;0.57;0.50;;;;;;;;;;5031214;28;20040;-64
2022/06/25 01:14:12;;;;;;;0.60;0.43;;;;;;;;;;5021544;28;20032;-66
2022/06/25 01:16:39;;;;;;;0.60;0.60;;;;;;;;;;5029736;28;20033;-66
2022/06/25 01:19:07;;;;;;;1.40;0.50;;;;;;;;;;5030607;28;20026;-67
2022/06/25 01:21:33;;;;;;;0.40;0.40;;;;;;;;;;5029893;28;20029;-67
2022/06/25 01:23:59;;;;;;;1.50;0.50;;;;;;;;;;5030870;28;20033;-65
2022/06/25 01:26:25;;;;;;;1.02;0.40;;;;;;;;;;5031185;28;20068;-68
2022/06/25 01:28:51;;;;;;;0.40;0.38;;;;;;;;;;5031514;28;20040;-68
2022/06/25 01:31:17;;;;;;;0.70;0.60;;;;;;;;;;5030474;28;20055;-68
2022/06/25 01:33:43;;;;;;;0.75;0.50;;;;;;;;;;5033315;28;20021;-66
2022/06/25 01:36:09;;;;;;;0.47;0.40;;;;;;;;;;5034649;28;20032;-67
2022/06/25 01:38:35;;;;;;;1.33;0.95;;;;;;;;;;5035376;28;20025;-66
2022/06/25 01:41:01;;;;;;;0.45;0.45;;;;;;;;;;5016820;28;20025;-66
2022/06/25 01:43:27;;;;;;;1.20;0.50;;;;;;;;;;5035194;28;20033;-66
2022/06/25 01:45:53;;;;;;;1.52;0.68;;;;;;;;;;5034916;28;20124;-66
2022/06/25 01:48:19;;;;;;;0.30;0.30;;;;;;;;;;5031212;28;20092;-66
2022/06/25 01:50:45;;;;;;;1.05;0.50;;;;;;;;;;5030854;28;20490;-66
2022/06/25 01:53:11;;;;;;;0.40;0.40;;;;;;;;;;5034097;28;20029;-66
2022/06/25 01:55:37;;;;;;;1.60;0.50;;;;;;;;;;5035026;28;20041;-66
2022/06/25 01:58:03;;;;;;;1.48;0.50;;;;;;;;;;5033087;28;20379;-66
2022/06/25 02:00:30;;;;;;;1.83;0.65;;;;;;;;;;5034135;28;20044;-67
2022/06/25 02:02:56;;;;;;;1.38;0.40;;;;;;;;;;5034425;28;20144;-59
2022/06/25 02:08:09;;;;;;;0.82;0.52;;;;;;;;;;5034256;28;20033;-69
2022/06/25 02:10:35;;;;;;;0.40;0.40;;;;;;;;;;5034690;28;20029;-66
2022/06/25 02:13:01;;;;;;;0.40;0.40;;;;;;;;;;5033611;28;20723;-63
2022/06/25 02:15:27;;;;;;;0.60;0.40;;;;;;;;;;5034833;28;20037;-65
2022/06/25 02:17:53;;;;;;;0.45;0.40;;;;;;;;;;5034763;28;20481;-69
2022/06/25 02:20:19;;;;;;;0.50;0.45;;;;;;;;;;5031891;28;20014;-69
2022/06/25 02:22:45;;;;;;;0.50;0.47;;;;;;;;;;5032897;28;20022;-66
2022/06/25 02:25:11;;;;;;;0.52;0.40;;;;;;;;;;5033216;28;20122;-67
2022/06/25 02:27:37;;;;;;;0.47;0.47;;;;;;;;;;5034489;28;20033;-67
2022/06/25 02:30:03;;;;;;;0.57;0.50;;;;;;;;;;5033937;28;20084;-66
2022/06/25 02:32:32;;;;;;;0.40;0.40;;;;;;;;;;5034081;28;20381;-67
2022/06/25 02:34:58;;;;;;;2.10;0.60;;;;;;;;;;5034326;28;20451;-56
2022/06/25 02:37:24;;;;;;;0.32;0.30;;;;;;;;;;5033451;28;20057;-67
2022/06/25 02:39:50;;;;;;;0.63;0.45;;;;;;;;;;5033075;28;20061;-67
2022/06/25 02:42:16;;;;;;;0.60;0.50;;;;;;;;;;5032168;28;20390;-67
2022/06/25 02:44:42;;;;;;;0.93;0.50;;;;;;;;;;5033268;28;20084;-67
2022/06/25 02:47:08;;;;;;;0.65;0.50;;;;;;;;;;5026658;28;20459;-66
2022/06/25 02:49:34;;;;;;;0.77;0.47;;;;;;;;;;5031135;28;20053;-66
2022/06/25 02:52:00;;;;;;;0.65;0.47;;;;;;;;;;5032292;28;20021;-56
2022/06/25 02:54:26;;;;;;;1.00;0.60;;;;;;;;;;5033298;28;20057;-67
2022/06/25 02:59:41;;;;;;;0.47;0.43;;;;;;;;;;5032969;28;20037;-67
2022/06/25 03:02:07;;;;;;;0.93;0.35;;;;;;;;;;5015161;28;20477;-66
2022/06/25 03:04:33;;;;;;;1.08;0.50;;;;;;;;;;5033972;28;20096;-67
2022/06/25 03:06:59;;;;;;;0.50;0.50;;;;;;;;;;5033556;28;20489;-66
2022/06/25 03:09:25;;;;;;;1.65;0.40;;;;;;;;;;5032762;28;20037;-69
2022/06/25 03:11:51;;;;;;;0.60;0.45;;;;;;;;;;5033524;28;20045;-66
2022/06/25 03:14:17;;;;;;;0.60;0.40;;;;;;;;;;5032715;28;20029;-66
2022/06/25 03:16:43;;;;;;;1.20;0.50;;;;;;;;;;5033216;28;20466;-63
2022/06/25 03:19:09;;;;;;;0.90;0.57;;;;;;;;;;5032116;28;20021;-65
2022/06/25 03:21:36;;;;;;;0.50;0.50;;;;;;;;;;5031290;28;20041;-67
2022/06/25 03:24:02;;;;;;;0.55;0.40;;;;;;;;;;5032875;28;20037;-58
2022/06/25 03:26:28;;;;;;;0.75;0.50;;;;;;;;;;5033229;28;20037;-66
2022/06/25 03:28:55;;;;;;;0.70;0.40;;;;;;;;;;5033403;28;20025;-66
2022/06/25 03:31:21;;;;;;;1.05;0.40;;;;;;;;;;5033116;28;20050;-67
2022/06/25 03:33:47;;;;;;;0.85;0.40;;;;;;;;;;5033339;28;20481;-67
2022/06/25 03:36:13;;;;;;;1.08;0.45;;;;;;;;;;5030650;28;20032;-66
2022/06/25 03:38:39;;;;;;;0.68;0.45;;;;;;;;;;5033009;28;20022;-65
2022/06/25 03:43:50;;;;;;;0.60;0.57;;;;;;;;;;5033645;28;20037;-67
2022/06/25 03:46:16;;;;;;;0.60;0.50;;;;;;;;;;5032915;28;20386;-67
2022/06/25 03:48:42;;;;;;;0.60;0.30;;;;;;;;;;5013661;28;20026;-66
2022/06/25 03:51:08;;;;;;;1.15;0.50;;;;;;;;;;5026541;28;20474;-66
2022/06/25 03:53:34;;;;;;;0.43;0.40;;;;;;;;;;5028894;28;20026;-67
2022/06/25 03:56:00;;;;;;;0.68;0.40;;;;;;;;;;5032058;28;20521;-68
2022/06/25 03:58:26;;;;;;;0.88;0.50;;;;;;;;;;5031891;28;20033;-67
2022/06/25 04:00:52;;;;;;;0.45;0.40;;;;;;;;;;5032714;28;20429;-67
2022/06/25 04:03:18;;;;;;;1.30;0.60;;;;;;;;;;5031545;28;20029;-67
2022/06/25 04:05:44;;;;;;;0.50;0.50;;;;;;;;;;5033110;28;20462;-68
2022/06/25 04:08:10;;;;;;;0.38;0.35;;;;;;;;;;5031197;28;20040;-58
2022/06/25 04:10:36;;;;;;;0.38;0.30;;;;;;;;;;5032929;28;20390;-67
2022/06/25 04:13:03;;;;;;;1.20;0.40;;;;;;;;;;5032610;28;20033;-65
2022/06/25 04:15:29;;;;;;;0.38;0.38;;;;;;;;;;5031799;28;20450;-67
2022/06/25 04:17:55;;;;;;;0.60;0.40;;;;;;;;;;5032562;28;20032;-67
2022/06/25 04:20:20;;;;;;;1.10;0.40;;;;;;;;;;5029167;28;20025;-67
2022/06/25 04:22:46;;;;;;;0.50;0.50;;;;;;;;;;5031706;28;20057;-67
2022/06/25 04:25:12;;;;;;;0.93;0.47;;;;;;;;;;5029425;28;20029;-67
2022/06/25 04:30:30;;;;;;;0.63;0.43;;;;;;;;;;5008538;28;20081;-67
2022/06/25 04:32:56;;;;;;;0.52;0.30;;;;;;;;;;5031905;28;20107;-67
2022/06/25 04:35:23;;;;;;;0.85;0.50;;;;;;;;;;5031348;28;20455;-67
2022/06/25 04:37:49;;;;;;;0.50;0.50;;;;;;;;;;5031921;28;20032;-68
2022/06/25 04:40:14;;;;;;;0.30;0.30;;;;;;;;;;5030923;28;20025;-66
2022/06/25 04:42:40;;;;;;;1.13;0.40;;;;;;;;;;5030519;28;20037;-67
2022/06/25 04:45:07;;;;;;;0.88;0.40;;;;;;;;;;5031132;28;20026;-58
2022/06/25 04:47:33;;;;;;;1.48;0.50;;;;;;;;;;5026203;28;20025;-65
2022/06/25 04:49:59;;;;;;;0.90;0.40;;;;;;;;;;5029860;28;20076;-66
2022/06/25 04:52:25;;;;;;;0.30;0.30;;;;;;;;;;5031000;28;20033;-67
2022/06/25 04:54:51;;;;;;;1.17;0.52;;;;;;;;;;5031777;28;20029;-67
2022/06/25 04:57:17;;;;;;;0.93;0.50;;;;;;;;;;5030710;28;20021;-65
2022/06/25 04:59:43;;;;;;;0.75;0.40;;;;;;;;;;5030368;28;20025;-66
2022/06/25 05:02:09;;;;;;;3.30;0.43;;;;;;;;;;5031452;28;20032;-56
2022/06/25 05:04:35;;;;;;;0.55;0.40;;;;;;;;;;5031391;28;20101;-68
2022/06/25 05:07:01;;;;;;;0.90;0.52;;;;;;;;;;5031709;28;20113;-67
2022/06/25 05:09:27;;;;;;;0.60;0.32;;;;;;;;;;5030595;28;20064;-69
2022/06/25 05:11:53;;;;;;;0.90;0.40;;;;;;;;;;5031382;28;20502;-70
2022/06/25 05:14:19;;;;;;;0.68;0.50;;;;;;;;;;5031023;28;20101;-66
2022/06/25 05:16:46;;;;;;;0.40;0.40;;;;;;;;;;5028476;28;20386;-65
2022/06/25 05:19:12;;;;;;;0.57;0.52;;;;;;;;;;5025241;28;20037;-64
2022/06/25 05:21:39;;;;;;;0.50;0.50;;;;;;;;;;5030978;28;20121;-66
2022/06/25 05:24:05;;;;;;;0.50;0.50;;;;;;;;;;5031234;28;20044;-64
2022/06/25 05:26:31;;;;;;;0.43;0.43;;;;;;;;;;5030460;28;20026;-65
2022/06/25 05:28:57;;;;;;;0.60;0.60;;;;;;;;;;5031340;28;20029;-65
2022/06/25 05:31:24;;;;;;;0.50;0.40;;;;;;;;;;5030689;28;20418;-69
2022/06/25 05:33:50;;;;;;;2.35;0.50;;;;;;;;;;5030123;28;20029;-64
2022/06/25 05:36:16;;;;;;;2.90;1.13;;;;;;;;;;5029760;28;20277;-64
2022/06/25 05:38:42;;;;;;;0.57;0.50;;;;;;;;;;5031259;28;20033;-66
2022/06/25 05:41:08;;;;;;;2.75;0.80;;;;;;;;;;5030700;28;20084;-58
2022/06/25 05:43:40;;;;;;;2.75;0.73;;;;;;;;;;5030613;28;20109;-63
2022/06/25 05:46:06;;;;;;;0.90;0.75;;;;;;;;;;5030904;28;20038;-65
2022/06/25 05:48:33;;;;;;;1.85;0.68;;;;;;;;;;5028722;28;20033;-65
2022/06/25 05:50:59;;;;;;;1.38;0.80;;;;;;;;;;5029544;28;20500;-65
2022/06/25 05:53:25;;;;;;;3.28;0.68;;;;;;;;;;5029994;28;20057;-66
2022/06/25 05:55:52;;;;;;;0.80;0.60;;;;;;;;;;5029655;28;20036;-57
2022/06/25 05:58:18;;;;;;;4.00;0.80;;;;;;;;;;5027805;28;20026;-59
2022/06/25 06:00:44;;;;;;;1.63;0.90;;;;;;;;;;5012368;28;20034;-63
2022/06/25 06:03:10;;;;;;;1.67;1.13;;;;;;;;;;5030241;28;20057;-58
2022/06/25 06:05:38;;;;;;;1.90;0.95;;;;;;;;;;5030405;28;20061;-66
2022/06/25 06:08:05;;;;;;;0.98;0.68;;;;;;;;;;5031103;28;20105;-66
2022/06/25 06:10:31;;;;;;;0.60;0.60;;;;;;;;;;5027594;28;20105;-64
2022/06/25 06:12:57;;;;;;;1.27;0.57;;;;;;;;;;5029666;28;20462;-65
2022/06/25 06:15:23;;;;;;;0.80;0.57;;;;;;;;;;5030051;28;20025;-64
2022/06/25 06:17:49;;;;;;;3.17;1.17;;;;;;;;;;5029676;28;20071;-66
2022/06/25 06:20:15;;;;;;;1.83;1.17;;;;;;;;;;5029985;28;20079;-60
2022/06/25 06:22:41;;;;;;;2.85;0.75;;;;;;;;;;5034018;28;20022;-67
2022/06/25 06:25:07;;;;;;;1.05;0.70;;;;;;;;;;5032018;28;20018;-64
2022/06/25 06:27:33;;;;;;;1.20;0.65;;;;;;;;;;5031546;28;20155;-64
2022/06/25 06:29:59;;;;;;;0.90;0.68;;;;;;;;;;5031679;28;20104;-64
2022/06/25 06:32:25;;;;;;;1.10;0.80;;;;;;;;;;5031261;28;20045;-63
2022/06/25 06:34:51;;;;;;;0.77;0.60;;;;;;;;;;5030053;28;20021;-60
2022/06/25 06:37:17;;;;;;;1.33;0.60;;;;;;;;;;5028510;28;20390;-62
2022/06/25 06:39:43;;;;;;;1.17;0.68;;;;;;;;;;5032063;28;20378;-63
2022/06/25 06:42:09;;;;;;;0.77;0.70;;;;;;;;;;5030745;28;20025;-65
2022/06/25 06:44:35;;;;;;;0.80;0.55;;;;;;;;;;5031916;28;20387;-63
2022/06/25 06:47:01;;;;;;;1.73;0.68;;;;;;;;;;5027380;28;20027;-62
2022/06/25 06:49:27;;;;;;;1.85;0.45;;;;;;;;;;5030139;28;20025;-63
2022/06/25 06:51:53;;;;;;;1.65;0.70;;;;;;;;;;5031972;28;20039;-61
2022/06/25 06:54:19;;;;;;;2.53;0.93;;;;;;;;;;5027840;28;20025;-63
2022/06/25 06:56:45;;;;;;;3.67;0.70;;;;;;;;;;5031563;28;20029;-64
2022/06/25 06:59:11;;;;;;;2.10;0.70;;;;;;;;;;5033618;28;20028;-56
2022/06/25 07:01:37;;;;;;;2.63;0.70;;;;;;;;;;5031350;28;20033;-64
2022/06/25 07:04:03;;;;;;;0.60;0.60;;;;;;;;;;5033213;28;20067;-65
2022/06/25 07:06:29;;;;;;;0.93;0.65;;;;;;;;;;5032684;28;20025;-64
2022/06/25 07:08:55;;;;;;;1.65;0.85;;;;;;;;;;5033339;28;20017;-63
2022/06/25 07:11:30;;;;;;;3.30;0.85;;;;;;;;;;5032745;28;20447;-64
2022/06/25 07:13:57;;;;;;;3.05;0.60;;;;;;;;;;5033516;28;20025;-65
2022/06/25 07:16:23;;;;;;;1.73;0.50;;;;;;;;;;5022907;28;20099;-63
2022/06/25 07:18:50;;;;;;;1.65;0.55;;;;;;;;;;5032053;28;20042;-67
2022/06/25 07:21:16;;;;;;;1.20;0.50;;;;;;;;;;5032387;28;20037;-65
2022/06/25 07:23:43;;;;;;;2.03;0.55;;;;;;;;;;5033400;28;20601;-67
2022/06/25 07:26:09;;;;;;;0.80;0.60;;;;;;;;;;5033454;28;20032;-67
2022/06/25 07:28:35;;;;;;;1.65;0.43;;;;;;;;;;5031714;28;20026;-67
2022/06/25 07:31:01;;;;;;;2.05;0.60;;;;;;;;;;5032544;28;20521;-67
2022/06/25 07:33:29;;;;;;;0.98;0.70;;;;;;;;;;5032380;28;20049;-66
2022/06/25 07:35:55;;;;;;;1.45;0.68;;;;;;;;;;5030971;28;20037;-67
2022/06/25 07:38:21;;;;;;;1.50;0.60;;;;;;;;;;5032325;28;20026;-67
2022/06/25 07:40:47;;;;;;;1.83;0.75;;;;;;;;;;5032947;28;20119;-66
2022/06/25 07:43:13;;;;;;;0.73;0.60;;;;;;;;;;5032789;28;20029;-59
2022/06/25 07:45:39;;;;;;;1.15;0.70;;;;;;;;;;5032595;28;20030;-67
2022/06/25 07:48:05;;;;;;;1.85;0.50;;;;;;;;;;5028984;28;20386;-61
2022/06/25 07:53:16;;;;;;;2.17;0.60;;;;;;;;;;5031566;28;20072;-58
2022/06/25 07:55:42;;;;;;;2.08;0.57;;;;;;;;;;5033037;28;20052;-67
2022/06/25 07:58:08;;;;;;;0.88;0.60;;;;;;;;;;5032443;28;20033;-67
2022/06/25 08:00:34;;;;;;;0.45;0.45;;;;;;;;;;5031420;28;20040;-67
2022/06/25 08:03:01;;;;;;;0.85;0.60;;;;;;;;;;5032447;28;20085;-67
2022/06/25 08:05:27;;;;;;;1.10;0.68;;;;;;;;;;5031750;28;20036;-67
2022/06/25 08:07:53;;;;;;;2.25;0.55;;;;;;;;;;5032022;28;20037;-67
2022/06/25 08:10:19;;;;;;;0.45;0.45;;;;;;;;;;5030000;28;20036;-65
2022/06/25 08:12:45;;;;;;;1.08;0.60;;;;;;;;;;5031669;28;20034;-67
2022/06/25 08:15:12;;;;;;;1.33;0.70;;;;;;;;;;5031555;28;20030;-67
2022/06/25 08:17:38;;;;;;;0.90;0.50;;;;;;;;;;5031638;28;20033;-67
2022/06/25 08:20:04;;;;;;;1.00;0.60;;;;;;;;;;5032073;28;20109;-67
2022/06/25 08:22:30;;;;;;;2.88;0.70;;;;;;;;;;5031079;28;20087;-66
2022/06/25 08:24:56;;;;;;;0.50;0.50;;;;;;;;;;5031715;28;20096;-67
2022/06/25 08:27:22;;;;;;;0.43;0.40;;;;;;;;;;5031017;28;20140;-67
2022/06/25 08:29:49;;;;;;;1.17;0.60;;;;;;;;;;5031533;28;20025;-66
2022/06/25 08:32:15;;;;;;;2.13;0.70;;;;;;;;;;5031147;28;20052;-56
2022/06/25 08:34:41;;;;;;;1.45;0.50;;;;;;;;;;5031934;28;20037;-67
2022/06/25 08:37:07;;;;;;;0.57;0.52;;;;;;;;;;5031765;28;20389;-67
2022/06/25 08:39:33;;;;;;;0.60;0.35;;;;;;;;;;5031201;28;20033;-67
2022/06/25 08:42:03;;;;;;;0.85;0.80;;;;;;;;;;5029905;28;20386;-67
2022/06/25 08:44:30;;;;;;;1.70;0.52;;;;;;;;;;5028228;28;20030;-67
2022/06/25 08:46:56;;;;;;;1.50;0.70;;;;;;;;;;5026966;28;20036;-67
2022/06/25 08:49:22;;;;;;;0.70;0.70;;;;;;;;;;5029878;28;20029;-67
2022/06/25 08:51:48;;;;;;;1.33;0.60;;;;;;;;;;5031773;28;20116;-68
2022/06/25 08:54:16;;;;;;;0.60;0.60;;;;;;;;;;5030595;28;20036;-56
2022/06/25 08:56:42;;;;;;;0.52;0.52;;;;;;;;;;5031781;28;20021;-67
2022/06/25 08:59:08;;;;;;;1.05;0.60;;;;;;;;;;5031566;28;20025;-67
2022/06/25 09:01:34;;;;;;;0.90;0.70;;;;;;;;;;5030754;28;20044;-67
2022/06/25 09:04:00;;;;;;;1.60;0.60;;;;;;;;;;5030441;28;20057;-67
2022/06/25 09:06:26;;;;;;;0.68;0.40;;;;;;;;;;5028190;28;20052;-67
2022/06/25 09:09:09;;;;;;;1.33;0.55;;;;;;;;;;5031674;28;20029;-67
2022/06/25 09:11:55;;;;;;;0.90;0.60;;;;;;;;;;5026489;28;20037;-67
2022/06/25 09:14:28;;;;;;;0.73;0.70;;;;;;;;;;5030699;28;20429;-66
2022/06/25 09:17:04;;;;;;;1.00;0.85;;;;;;;;;;5031278;28;20112;-67
2022/06/25 09:19:57;;;;;;;1.33;0.70;;;;;;;;;;5030603;28;20116;-68
2022/06/25 09:22:24;;;;;;;2.80;0.70;;;;;;;;;;5028103;28;20030;-63
2022/06/25 09:24:51;;;;;;;1.15;0.90;;;;;;;;;;5030381;28;20116;-65
2022/06/25 09:27:19;;;;;;;1.52;0.70;;;;;;;;;;5028548;28;20030;-58
2022/06/25 09:29:48;;;;;;;1.60;0.70;;;;;;;;;;5031159;28;20108;-62
2022/06/25 09:32:14;;;;;;;1.10;1.00;;;;;;;;;;5030300;28;20080;-55
2022/06/25 09:34:40;;;;;;;3.95;0.95;;;;;;;;;;5029041;28;20061;-62
2022/06/25 09:37:26;;;;;;;2.88;0.98;;;;;;;;;;5031148;28;20022;-62
2022/06/25 09:39:56;;;;;;;1.42;0.95;;;;;;;;;;5030591;28;20108;-62
2022/06/25 09:42:22;;;;;;;3.55;1.00;;;;;;;;;;5028334;28;20080;-62
2022/06/25 09:44:48;;;;;;;1.55;0.73;;;;;;;;;;5030704;28;20025;-62
2022/06/25 09:47:14;;;;;;;3.50;1.25;;;;;;;;;;5026889;28;20017;-54
2022/06/25 09:49:40;;;;;;;0.88;0.70;;;;;;;;;;5030564;28;20033;-62
2022/06/25 09:52:07;;;;;;;3.92;1.13;;;;;;;;;;5030731;28;20088;-62
2022/06/25 09:54:33;;;;;;;1.92;0.80;;;;;;;;;;5030257;28;20026;-62
2022/06/25 09:57:02;;;;;;;1.38;0.88;;;;;;;;;;5034815;28;20057;-62
2022/06/25 09:59:30;;;;;;;2.08;1.00;;;;;;;;;;5033381;28;20136;-62
2022/06/25 10:01:56;;;;;;;1.40;1.15;;;;;;;;;;5033965;28;20030;-62
2022/06/25 10:04:22;;;;;;;1.08;0.68;;;;;;;;;;5028397;28;20060;-62
2022/06/25 10:06:50;;;;;;;1.77;1.00;;;;;;;;;;5034663;28;20070;-63
2022/06/25 10:09:16;;;;;;;1.55;1.00;;;;;;;;;;5034077;28;20033;-56
2022/06/25 10:11:43;;;;;;;2.40;0.95;;;;;;;;;;5034153;28;20037;-66
2022/06/25 10:14:10;;;;;;;0.88;0.70;;;;;;;;;;5034648;28;20021;-63
2022/06/25 10:16:36;;;;;;;3.63;1.02;;;;;;;;;;5032421;28;20041;-63
2022/06/25 10:19:03;;;;;;;1.40;1.00;;;;;;;;;;5034235;28;20018;-64
2022/06/25 10:21:29;;;;;;;1.65;1.08;;;;;;;;;;5033874;28;20021;-63
2022/06/25 10:24:02;;;;;;;1.40;0.70;;;;;;;;;;5034330;28;20050;-63
2022/06/25 10:26:28;;;;;;;2.13;0.90;;;;;;;;;;5033550;28;20030;-64
2022/06/25 10:28:54;;;;;;;2.72;0.85;;;;;;;;;;5034000;28;20022;-63
2022/06/25 10:31:20;;;;;;;3.00;0.95;;;;;;;;;;5033039;28;20057;-63
2022/06/25 10:33:53;;;;;;;2.80;0.80;;;;;;;;;;5031395;28;20051;-62
2022/06/25 10:36:39;;;;;;;1.15;0.90;;;;;;;;;;5033123;28;20112;-63
2022/06/25 10:39:23;;;;;;;1.98;0.93;;;;;;;;;;5034245;28;20470;-61
2022/06/25 10:44:52;;;;;;;2.00;0.77;;;;;;;;;;5031057;28;20024;-63
2022/06/25 10:47:18;;;;;;;1.73;0.70;;;;;;;;;;5030301;28;20029;-62
2022/06/25 10:49:44;;;;;;;1.40;0.90;;;;;;;;;;5033172;28;20932;-62
2022/06/25 10:52:16;;;;;;;2.15;0.93;;;;;;;;;;5030472;28;20029;-64
2022/06/25 10:54:46;;;;;;;5.18;1.45;;;;;;;;;;5033528;28;20030;-63
2022/06/25 10:57:12;;;;;;;5.30;1.67;;;;;;;;;;5033829;28;20433;-65
2022/06/25 10:59:39;;;;;;;2.08;1.33;;;;;;;;;;5032820;28;20055;-63
2022/06/25 11:02:07;;;;;;;4.55;1.27;;;;;;;;;;5033737;28;20029;-64
2022/06/25 11:04:34;;;;;;;4.05;1.90;;;;;;;;;;5031840;28;20032;-64
2022/06/25 11:07:09;;;;;;;4.30;1.40;;;;;;;;;;5031871;28;20021;-64
2022/06/25 11:09:37;;;;;;;3.88;1.52;;;;;;;;;;5032583;28;20152;-58
2022/06/25 11:12:03;;;;;;;5.00;1.98;;;;;;;;;;5032257;28;20041;-63
2022/06/25 11:14:29;;;;;;;4.80;1.88;;;;;;;;;;5032526;28;20022;-64
2022/06/25 11:16:55;;;;;;;8.55;1.70;;;;;;;;;;5033512;28;20029;-64
2022/06/25 11:19:22;;;;;;;7.28;1.98;;;;;;;;;;5032339;28;20036;-64
2022/06/25 11:21:49;;;;;;;11.77;2.03;;;;;;;;;;5032696;28;20034;-63
2022/06/25 11:24:15;;;;;;;4.03;1.92;;;;;;;;;;5032967;28;20017;-56
2022/06/25 11:29:28;;;;;;;6.15;1.98;;;;;;;;;;5032578;28;20548;-64
2022/06/25 11:31:55;;;;;;;4.78;1.88;;;;;;;;;;5018693;28;20168;-64
2022/06/25 11:34:23;;;;;;;5.63;2.08;;;;;;;;;;5009048;28;20375;-62
2022/06/25 11:37:07;;;;;;;3.17;1.95;;;;;;;;;;5005464;28;20038;-64
2022/06/25 11:39:34;;;;;;;5.78;1.95;;;;;;;;;;5010447;28;20022;-69
2022/06/25 11:42:01;;;;;;;4.32;1.48;;;;;;;;;;5012007;28;20030;-68
2022/06/25 11:44:27;;;;;;;5.85;1.85;;;;;;;;;;5010759;28;20084;-67
2022/06/25 11:46:53;;;;;;;4.88;1.58;;;;;;;;;;5011886;28;20467;-70
2022/06/25 11:49:22;;;;;;;2.55;1.55;;;;;;;;;;5011389;28;20548;-63
2022/06/25 11:51:49;;;;;;;5.65;1.75;;;;;;;;;;5011485;28;20052;-66
2022/06/25 11:54:16;;;;;;;2.70;1.50;;;;;;;;;;5012531;28;20057;-58
2022/06/25 11:56:49;;;;;;;2.67;1.40;;;;;;;;;;5009637;28;20029;-68
2022/06/25 11:59:22;;;;;;;5.25;1.67;;;;;;;;;;5011814;28;20097;-59
2022/06/25 12:01:49;;;;;;;3.78;1.77;;;;;;;;;;5011739;28;20076;-68
2022/06/25 12:04:15;;;;;;;3.58;1.30;;;;;;;;;;5009330;28;20641;-59
2022/06/25 12:06:41;;;;;;;5.85;1.67;;;;;;;;;;5010593;28;20056;-70
2022/06/25 12:09:07;;;;;;;6.75;1.85;;;;;;;;;;5012145;28;20018;-65
2022/06/25 12:11:33;;;;;;;3.65;1.40;;;;;;;;;;5009504;28;20053;-67
2022/06/25 12:13:59;;;;;;;5.32;1.40;;;;;;;;;;5007837;28;20026;-65
2022/06/25 12:16:40;;;;;;;2.85;1.50;;;;;;;;;;5011348;28;20092;-61
2022/06/25 12:19:06;;;;;;;4.07;1.52;;;;;;;;;;5011204;28;20041;-70
2022/06/25 12:21:35;;;;;;;4.05;1.30;;;;;;;;;;5010443;28;20406;-67
2022/06/25 12:24:03;;;;;;;3.72;1.42;;;;;;;;;;5012195;28;20057;-65
2022/06/25 12:26:34;;;;;;;3.05;1.13;;;;;;;;;;5010279;28;20040;-62
2022/06/25 12:29:06;;;;;;;3.37;1.33;;;;;;;;;;5011874;28;20018;-71
2022/06/25 12:31:32;;;;;;;2.83;1.38;;;;;;;;;;5009187;28;20315;-70
2022/06/25 12:34:00;;;;;;;3.97;1.73;;;;;;;;;;5009042;28;20057;-71
2022/06/25 12:36:26;;;;;;;5.03;1.80;;;;;;;;;;5009256;28;20040;-68
2022/06/25 12:38:52;;;;;;;2.97;1.27;;;;;;;;;;5011181;28;20025;-67
2022/06/25 12:41:18;;;;;;;5.32;1.35;;;;;;;;;;5010408;28;20089;-58
2022/06/25 12:43:48;;;;;;;5.80;1.77;;;;;;;;;;5010865;28;20575;-63
2022/06/25 12:46:15;;;;;;;2.90;1.23;;;;;;;;;;5009212;28;20041;-70
2022/06/25 12:48:41;;;;;;;2.38;1.23;;;;;;;;;;5010209;28;20052;-67
2022/06/25 12:51:09;;;;;;;2.67;1.38;;;;;;;;;;5001902;28;20137;-63
2022/06/25 12:53:35;;;;;;;4.22;1.33;;;;;;;;;;5010019;28;20029;-64
2022/06/25 12:56:01;;;;;;;3.45;1.40;;;;;;;;;;5009209;28;20121;-68
2022/06/25 12:58:33;;;;;;;4.53;1.20;;;;;;;;;;5010126;28;20026;-68
2022/06/25 13:00:59;;;;;;;5.75;1.20;;;;;;;;;;5011116;28;20391;-63
2022/06/25 13:03:25;;;;;;;3.15;1.23;;;;;;;;;;5004438;28;20030;-64
2022/06/25 13:05:51;;;;;;;1.38;1.00;;;;;;;;;;5009529;28;20042;-70
2022/06/25 13:08:17;;;;;;;1.98;1.00;;;;;;;;;;5008861;28;20722;-60
2022/06/25 13:10:43;;;;;;;1.33;1.02;;;;;;;;;;4990371;28;20041;-71
2022/06/25 13:13:09;;;;;;;2.50;1.25;;;;;;;;;;5004867;28;20018;-69
2022/06/25 13:15:35;;;;;;;2.80;1.17;;;;;;;;;;5008849;28;20184;-71
2022/06/25 13:18:01;;;;;;;3.05;1.15;;;;;;;;;;5009179;28;20107;-63
2022/06/25 13:20:27;;;;;;;2.00;1.17;;;;;;;;;;5006668;28;20057;-65
2022/06/25 13:22:54;;;;;;;3.35;1.08;;;;;;;;;;5008481;28;20434;-62
2022/06/25 13:25:20;;;;;;;1.65;1.00;;;;;;;;;;5009272;28;20026;-65
2022/06/25 13:27:46;;;;;;;3.20;1.08;;;;;;;;;;5010698;28;20084;-64
2022/06/25 13:30:12;;;;;;;3.05;1.30;;;;;;;;;;5013389;28;20422;-66
2022/06/25 13:32:39;;;;;;;4.43;1.73;;;;;;;;;;5030856;28;20041;-67
2022/06/25 13:35:06;;;;;;;1.77;0.93;;;;;;;;;;5032385;28;20076;-64
2022/06/25 13:37:32;;;;;;;4.05;1.38;;;;;;;;;;5032208;28;20398;-65
2022/06/25 13:39:58;;;;;;;1.67;1.13;;;;;;;;;;5033358;28;20449;-65
2022/06/25 13:42:24;;;;;;;3.30;1.08;;;;;;;;;;5033443;28;20125;-63
2022/06/25 13:44:51;;;;;;;1.17;0.70;;;;;;;;;;5034508;28;20049;-63
2022/06/25 13:47:16;;;;;;;1.52;1.08;;;;;;;;;;5029232;28;20033;-59
2022/06/25 13:49:42;;;;;;;2.28;0.90;;;;;;;;;;5033170;28;20029;-61
2022/06/25 13:52:08;;;;;;;1.95;0.90;;;;;;;;;;5029530;28;20494;-63
2022/06/25 13:54:35;;;;;;;2.00;1.27;;;;;;;;;;5039490;28;20033;-64
2022/06/25 13:57:01;;;;;;;2.40;1.00;;;;;;;;;;5029492;28;20492;-65
2022/06/25 13:59:27;;;;;;;2.35;0.93;;;;;;;;;;5030274;28;20052;-63
2022/06/25 14:01:53;;;;;;;1.70;0.95;;;;;;;;;;5031297;28;20044;-59
2022/06/25 14:04:19;;;;;;;1.75;1.00;;;;;;;;;;5033064;28;20033;-55
2022/06/25 14:06:46;;;;;;;3.75;1.42;;;;;;;;;;5027687;28;20107;-62
2022/06/25 14:09:13;;;;;;;1.55;0.85;;;;;;;;;;5030890;28;20048;-64
2022/06/25 14:11:40;;;;;;;1.30;0.90;;;;;;;;;;5035819;28;20050;-63
2022/06/25 14:14:06;;;;;;;3.22;1.00;;;;;;;;;;5032248;28;20371;-63
2022/06/25 14:16:32;;;;;;;2.63;1.15;;;;;;;;;;5034864;28;20095;-61
2022/06/25 14:18:58;;;;;;;2.25;0.90;;;;;;;;;;5023655;28;20030;-63
2022/06/25 14:21:24;;;;;;;2.25;0.90;;;;;;;;;;5030072;28;20037;-62
2022/06/25 14:23:50;;;;;;;2.03;1.10;;;;;;;;;;5027394;28;20029;-62
2022/06/25 14:26:16;;;;;;;1.70;0.93;;;;;;;;;;5024630;28;20052;-56
2022/06/25 14:28:42;;;;;;;2.30;1.00;;;;;;;;;;5028228;28;20125;-63
2022/06/25 14:31:08;;;;;;;1.42;0.93;;;;;;;;;;5029842;28;20053;-60
2022/06/25 14:33:34;;;;;;;1.65;1.15;;;;;;;;;;5016644;28;20108;-61
2022/06/25 14:44:16;;;;;;;0.95;0.85;;;;;;;;;;5030471;28;20113;-57
2022/06/25 14:46:42;;;;;;;2.50;1.25;;;;;;;;;;5029071;28;20049;-62
2022/06/25 14:49:08;;;;;;;1.92;0.93;;;;;;;;;;5027681;28;20032;-60
2022/06/25 14:51:34;;;;;;;0.90;0.63;;;;;;;;;;5032081;28;20080;-63
2022/06/25 14:54:00;;;;;;;1.77;1.10;;;;;;;;;;5032906;28;20063;-68
2022/06/25 14:56:26;;;;;;;2.53;0.80;;;;;;;;;;5032133;28;20501;-63
2022/06/25 14:58:52;;;;;;;1.17;0.90;;;;;;;;;;5024857;28;20029;-65
2022/06/25 15:01:18;;;;;;;1.05;0.70;;;;;;;;;;5031154;28;20107;-56
2022/06/25 15:03:48;;;;;;;1.90;0.90;;;;;;;;;;5030740;28;20022;-63
2022/06/25 15:06:14;;;;;;;1.80;0.88;;;;;;;;;;5027670;28;20045;-64
2022/06/25 15:08:40;;;;;;;0.98;0.77;;;;;;;;;;5031553;28;20041;-65